sensor_id;sensor_type;location;lat;lon;timestamp;P1;durP1;ratioP1;P2;durP2;ratioP2
65279;SDS011;51878;55.748;48.742;2022-09-12T00:01:09;6.68;;;4.43;;
65279;SDS011;51878;55.748;48.742;2022-09-12T00:03:38;9.05;;;5.40;;
65279;SDS011;51878;55.748;48.742;2022-09-12T00:06:07;10.60;;;5.53;;
65279;SDS011;51878;55.748;48.742;2022-09-12T00:08:36;11.63;;;5.38;;
65279;SDS011;51878;55.748;48.742;2022-09-12T00:11:05;10.75;;;5.85;;
65279;SDS011;51878;55.748;48.742;2022-09-12T00:13:34;9.88;;;5.53;;
65279;SDS011;51878;55.748;48.742;2022-09-12T00:16:06;7.95;;;5.63;;
65279;SDS011;51878;55.748;48.742;2022-09-12T00:18:39;7.10;;;5.53;;
65279;SDS011;51878;55.748;48.742;2022-09-12T00:21:06;9.32;;;5.07;;
65279;SDS011;51878;55.748;48.742;2022-09-12T00:23:33;9.68;;;5.65;;
65279;SDS011;51878;55.748;48.742;2022-09-12T00:26:02;9.68;;;5.63;;
65279;SDS011;51878;55.748;48.742;2022-09-12T00:28:35;9.15;;;5.32;;
65279;SDS011;51878;55.748;48.742;2022-09-12T00:31:04;7.68;;;5.35;;
65279;SDS011;51878;55.748;48.742;2022-09-12T00:33:33;8.18;;;4.80;;
65279;SDS011;51878;55.748;48.742;2022-09-12T00:36:08;5.32;;;4.70;;
65279;SDS011;51878;55.748;48.742;2022-09-12T00:38:37;6.32;;;4.35;;
65279;SDS011;51878;55.748;48.742;2022-09-12T00:41:10;9.05;;;5.38;;
65279;SDS011;51878;55.748;48.742;2022-09-12T00:43:45;9.02;;;4.97;;
65279;SDS011;51878;55.748;48.742;2022-09-12T00:49:04;7.75;;;4.60;;
65279;SDS011;51878;55.748;48.742;2022-09-12T00:51:45;7.07;;;5.18;;
65279;SDS011;51878;55.748;48.742;2022-09-12T00:54:21;9.30;;;5.20;;
65279;SDS011;51878;55.748;48.742;2022-09-12T00:56:52;5.78;;;5.07;;
65279;SDS011;51878;55.748;48.742;2022-09-12T00:59:28;6.72;;;4.68;;
65279;SDS011;51878;55.748;48.742;2022-09-12T01:02:00;6.95;;;4.72;;
65279;SDS011;51878;55.748;48.742;2022-09-12T01:04:28;7.55;;;5.32;;
65279;SDS011;51878;55.748;48.742;2022-09-12T01:06:56;7.82;;;4.95;;
65279;SDS011;51878;55.748;48.742;2022-09-12T01:09:24;5.65;;;4.80;;
65279;SDS011;51878;55.748;48.742;2022-09-12T01:11:51;6.85;;;5.00;;
65279;SDS011;51878;55.748;48.742;2022-09-12T01:14:19;10.43;;;4.95;;
65279;SDS011;51878;55.748;48.742;2022-09-12T01:16:47;7.80;;;5.20;;
65279;SDS011;51878;55.748;48.742;2022-09-12T01:27:49;7.70;;;5.47;;
65279;SDS011;51878;55.748;48.742;2022-09-12T01:35:40;6.70;;;5.13;;
65279;SDS011;51878;55.748;48.742;2022-09-12T01:46:20;9.73;;;5.50;;
65279;SDS011;51878;55.748;48.742;2022-09-12T01:49:00;9.80;;;5.70;;
65279;SDS011;51878;55.748;48.742;2022-09-12T01:54:25;8.30;;;5.28;;
65279;SDS011;51878;55.748;48.742;2022-09-12T01:57:00;8.70;;;6.13;;
65279;SDS011;51878;55.748;48.742;2022-09-12T01:59:38;8.93;;;6.03;;
65279;SDS011;51878;55.748;48.742;2022-09-12T02:04:57;8.45;;;5.95;;
65279;SDS011;51878;55.748;48.742;2022-09-12T02:07:42;8.73;;;5.70;;
65279;SDS011;51878;55.748;48.742;2022-09-12T02:10:36;7.63;;;6.25;;
65279;SDS011;51878;55.748;48.742;2022-09-12T02:13:22;9.00;;;6.28;;
65279;SDS011;51878;55.748;48.742;2022-09-12T02:15:57;7.43;;;5.88;;
65279;SDS011;51878;55.748;48.742;2022-09-12T02:18:41;9.02;;;5.85;;
65279;SDS011;51878;55.748;48.742;2022-09-12T02:21:12;8.65;;;5.65;;
65279;SDS011;51878;55.748;48.742;2022-09-12T02:23:42;10.38;;;6.28;;
65279;SDS011;51878;55.748;48.742;2022-09-12T02:26:18;12.75;;;6.50;;
65279;SDS011;51878;55.748;48.742;2022-09-12T02:28:49;10.35;;;6.63;;
65279;SDS011;51878;55.748;48.742;2022-09-12T02:33:57;10.13;;;6.82;;
65279;SDS011;51878;55.748;48.742;2022-09-12T02:36:51;11.48;;;6.43;;
65279;SDS011;51878;55.748;48.742;2022-09-12T02:39:26;7.53;;;6.40;;
65279;SDS011;51878;55.748;48.742;2022-09-12T02:41:54;9.60;;;6.70;;
65279;SDS011;51878;55.748;48.742;2022-09-12T02:44:24;11.55;;;6.55;;
65279;SDS011;51878;55.748;48.742;2022-09-12T02:47:29;14.85;;;6.30;;
65279;SDS011;51878;55.748;48.742;2022-09-12T02:50:07;10.25;;;6.30;;
65279;SDS011;51878;55.748;48.742;2022-09-12T02:52:35;9.45;;;5.78;;
65279;SDS011;51878;55.748;48.742;2022-09-12T02:55:04;7.63;;;5.35;;
65279;SDS011;51878;55.748;48.742;2022-09-12T02:57:32;7.45;;;5.45;;
65279;SDS011;51878;55.748;48.742;2022-09-12T03:00:00;7.38;;;5.18;;
65279;SDS011;51878;55.748;48.742;2022-09-12T03:02:44;9.05;;;5.32;;
65279;SDS011;51878;55.748;48.742;2022-09-12T03:06:08;7.68;;;5.10;;
65279;SDS011;51878;55.748;48.742;2022-09-12T03:13:52;6.13;;;3.67;;
65279;SDS011;51878;55.748;48.742;2022-09-12T03:16:51;5.60;;;3.90;;
65279;SDS011;51878;55.748;48.742;2022-09-12T03:19:29;4.13;;;3.10;;
65279;SDS011;51878;55.748;48.742;2022-09-12T03:22:26;7.32;;;3.00;;
65279;SDS011;51878;55.748;48.742;2022-09-12T03:25:10;4.68;;;3.22;;
65279;SDS011;51878;55.748;48.742;2022-09-12T03:27:44;4.00;;;3.03;;
65279;SDS011;51878;55.748;48.742;2022-09-12T03:30:22;4.75;;;3.00;;
65279;SDS011;51878;55.748;48.742;2022-09-12T03:32:50;5.25;;;2.88;;
65279;SDS011;51878;55.748;48.742;2022-09-12T03:35:20;4.20;;;2.70;;
65279;SDS011;51878;55.748;48.742;2022-09-12T03:37:49;6.32;;;3.53;;
65279;SDS011;51878;55.748;48.742;2022-09-12T03:40:17;5.05;;;3.47;;
65279;SDS011;51878;55.748;48.742;2022-09-12T03:42:45;4.63;;;3.38;;
65279;SDS011;51878;55.748;48.742;2022-09-12T03:45:12;6.65;;;3.80;;
65279;SDS011;51878;55.748;48.742;2022-09-12T03:47:39;4.63;;;3.40;;
65279;SDS011;51878;55.748;48.742;2022-09-12T03:50:06;5.80;;;3.90;;
65279;SDS011;51878;55.748;48.742;2022-09-12T03:52:34;5.35;;;3.55;;
65279;SDS011;51878;55.748;48.742;2022-09-12T03:55:01;6.28;;;3.53;;
65279;SDS011;51878;55.748;48.742;2022-09-12T03:57:29;6.68;;;3.22;;
65279;SDS011;51878;55.748;48.742;2022-09-12T03:59:56;5.15;;;4.00;;
65279;SDS011;51878;55.748;48.742;2022-09-12T04:02:23;4.80;;;3.72;;
65279;SDS011;51878;55.748;48.742;2022-09-12T04:04:50;5.40;;;3.67;;
65279;SDS011;51878;55.748;48.742;2022-09-12T04:07:17;5.68;;;3.72;;
65279;SDS011;51878;55.748;48.742;2022-09-12T04:09:44;4.32;;;3.40;;
65279;SDS011;51878;55.748;48.742;2022-09-12T04:12:11;6.38;;;3.90;;
65279;SDS011;51878;55.748;48.742;2022-09-12T04:14:39;9.75;;;4.38;;
65279;SDS011;51878;55.748;48.742;2022-09-12T04:17:06;4.57;;;3.58;;
65279;SDS011;51878;55.748;48.742;2022-09-12T04:19:34;5.95;;;4.15;;
65279;SDS011;51878;55.748;48.742;2022-09-12T04:22:01;10.10;;;3.53;;
65279;SDS011;51878;55.748;48.742;2022-09-12T04:24:28;5.40;;;3.83;;
65279;SDS011;51878;55.748;48.742;2022-09-12T04:26:55;5.03;;;3.97;;
65279;SDS011;51878;55.748;48.742;2022-09-12T04:29:22;11.88;;;3.97;;
65279;SDS011;51878;55.748;48.742;2022-09-12T04:31:49;8.43;;;3.95;;
65279;SDS011;51878;55.748;48.742;2022-09-12T04:34:17;9.27;;;3.67;;
65279;SDS011;51878;55.748;48.742;2022-09-12T04:36:44;5.97;;;3.78;;
65279;SDS011;51878;55.748;48.742;2022-09-12T04:39:11;5.53;;;3.50;;
65279;SDS011;51878;55.748;48.742;2022-09-12T04:41:39;5.70;;;3.42;;
65279;SDS011;51878;55.748;48.742;2022-09-12T04:44:11;6.20;;;4.18;;
65279;SDS011;51878;55.748;48.742;2022-09-12T04:46:41;4.88;;;3.72;;
65279;SDS011;51878;55.748;48.742;2022-09-12T04:49:10;6.35;;;4.10;;
65279;SDS011;51878;55.748;48.742;2022-09-12T04:51:40;6.95;;;4.30;;
65279;SDS011;51878;55.748;48.742;2022-09-12T04:54:10;4.95;;;3.90;;
65279;SDS011;51878;55.748;48.742;2022-09-12T04:56:39;4.85;;;3.55;;
65279;SDS011;51878;55.748;48.742;2022-09-12T04:59:08;4.45;;;3.30;;
65279;SDS011;51878;55.748;48.742;2022-09-12T05:01:37;4.63;;;3.25;;
65279;SDS011;51878;55.748;48.742;2022-09-12T05:04:04;5.97;;;3.92;;
65279;SDS011;51878;55.748;48.742;2022-09-12T05:06:35;5.43;;;3.53;;
65279;SDS011;51878;55.748;48.742;2022-09-12T05:09:03;4.75;;;3.30;;
65279;SDS011;51878;55.748;48.742;2022-09-12T05:11:32;4.30;;;3.17;;
65279;SDS011;51878;55.748;48.742;2022-09-12T05:14:21;6.22;;;3.17;;
65279;SDS011;51878;55.748;48.742;2022-09-12T05:16:49;5.20;;;3.13;;
65279;SDS011;51878;55.748;48.742;2022-09-12T05:19:16;5.22;;;3.13;;
65279;SDS011;51878;55.748;48.742;2022-09-12T05:21:43;3.58;;;2.60;;
65279;SDS011;51878;55.748;48.742;2022-09-12T05:24:10;4.13;;;2.70;;
65279;SDS011;51878;55.748;48.742;2022-09-12T05:26:37;3.15;;;2.33;;
65279;SDS011;51878;55.748;48.742;2022-09-12T05:29:04;3.85;;;2.38;;
65279;SDS011;51878;55.748;48.742;2022-09-12T05:31:32;3.90;;;2.53;;
65279;SDS011;51878;55.748;48.742;2022-09-12T05:34:00;4.63;;;2.58;;
65279;SDS011;51878;55.748;48.742;2022-09-12T05:36:30;2.80;;;2.53;;
65279;SDS011;51878;55.748;48.742;2022-09-12T05:39:00;5.75;;;2.55;;
65279;SDS011;51878;55.748;48.742;2022-09-12T05:41:28;2.30;;;2.10;;
65279;SDS011;51878;55.748;48.742;2022-09-12T05:43:57;2.22;;;1.90;;
65279;SDS011;51878;55.748;48.742;2022-09-12T05:46:30;7.85;;;2.58;;
65279;SDS011;51878;55.748;48.742;2022-09-12T05:49:05;3.17;;;2.00;;
65279;SDS011;51878;55.748;48.742;2022-09-12T05:51:35;2.95;;;2.00;;
65279;SDS011;51878;55.748;48.742;2022-09-12T05:54:05;3.08;;;2.33;;
65279;SDS011;51878;55.748;48.742;2022-09-12T05:56:35;4.05;;;1.83;;
65279;SDS011;51878;55.748;48.742;2022-09-12T05:59:15;3.78;;;1.80;;
65279;SDS011;51878;55.748;48.742;2022-09-12T06:01:44;2.08;;;1.70;;
65279;SDS011;51878;55.748;48.742;2022-09-12T06:04:12;2.20;;;1.90;;
65279;SDS011;51878;55.748;48.742;2022-09-12T06:06:40;2.00;;;1.70;;
65279;SDS011;51878;55.748;48.742;2022-09-12T06:09:11;2.60;;;2.08;;
65279;SDS011;51878;55.748;48.742;2022-09-12T06:11:42;3.38;;;2.00;;
65279;SDS011;51878;55.748;48.742;2022-09-12T06:14:11;2.88;;;1.80;;
65279;SDS011;51878;55.748;48.742;2022-09-12T06:16:56;2.78;;;1.85;;
65279;SDS011;51878;55.748;48.742;2022-09-12T06:19:23;3.85;;;2.10;;
65279;SDS011;51878;55.748;48.742;2022-09-12T06:21:53;4.15;;;2.17;;
65279;SDS011;51878;55.748;48.742;2022-09-12T06:24:20;3.13;;;2.10;;
65279;SDS011;51878;55.748;48.742;2022-09-12T06:26:47;2.75;;;2.30;;
65279;SDS011;51878;55.748;48.742;2022-09-12T06:29:15;4.35;;;2.00;;
65279;SDS011;51878;55.748;48.742;2022-09-12T06:31:42;4.55;;;1.90;;
65279;SDS011;51878;55.748;48.742;2022-09-12T06:34:11;2.25;;;1.90;;
65279;SDS011;51878;55.748;48.742;2022-09-12T06:36:43;3.10;;;1.83;;
65279;SDS011;51878;55.748;48.742;2022-09-12T06:39:13;2.47;;;1.65;;
65279;SDS011;51878;55.748;48.742;2022-09-12T06:41:42;5.45;;;1.90;;
65279;SDS011;51878;55.748;48.742;2022-09-12T06:44:14;5.55;;;1.80;;
65279;SDS011;51878;55.748;48.742;2022-09-12T06:46:43;1.60;;;1.50;;
65279;SDS011;51878;55.748;48.742;2022-09-12T06:49:10;1.67;;;1.50;;
65279;SDS011;51878;55.748;48.742;2022-09-12T06:51:38;3.72;;;1.80;;
65279;SDS011;51878;55.748;48.742;2022-09-12T06:54:07;3.38;;;1.70;;
65279;SDS011;51878;55.748;48.742;2022-09-12T06:56:38;2.95;;;1.92;;
65279;SDS011;51878;55.748;48.742;2022-09-12T06:59:06;2.17;;;1.60;;
65279;SDS011;51878;55.748;48.742;2022-09-12T07:01:33;2.30;;;1.58;;
65279;SDS011;51878;55.748;48.742;2022-09-12T07:04:01;1.50;;;1.40;;
65279;SDS011;51878;55.748;48.742;2022-09-12T07:06:30;2.63;;;1.48;;
65279;SDS011;51878;55.748;48.742;2022-09-12T07:09:03;1.88;;;1.65;;
65279;SDS011;51878;55.748;48.742;2022-09-12T07:11:35;2.53;;;1.65;;
65279;SDS011;51878;55.748;48.742;2022-09-12T07:14:05;3.17;;;1.63;;
65279;SDS011;51878;55.748;48.742;2022-09-12T07:16:33;4.25;;;1.77;;
65279;SDS011;51878;55.748;48.742;2022-09-12T07:19:03;2.60;;;1.70;;
65279;SDS011;51878;55.748;48.742;2022-09-12T07:21:31;4.63;;;1.63;;
65279;SDS011;51878;55.748;48.742;2022-09-12T07:23:58;2.42;;;1.63;;
65279;SDS011;51878;55.748;48.742;2022-09-12T07:26:26;2.72;;;1.40;;
65279;SDS011;51878;55.748;48.742;2022-09-12T07:28:55;1.98;;;1.55;;
65279;SDS011;51878;55.748;48.742;2022-09-12T07:31:38;2.05;;;1.48;;
65279;SDS011;51878;55.748;48.742;2022-09-12T07:34:05;5.30;;;1.30;;
65279;SDS011;51878;55.748;48.742;2022-09-12T07:36:32;1.98;;;1.30;;
65279;SDS011;51878;55.748;48.742;2022-09-12T07:39:00;3.65;;;1.35;;
65279;SDS011;51878;55.748;48.742;2022-09-12T07:41:28;3.17;;;1.17;;
65279;SDS011;51878;55.748;48.742;2022-09-12T07:43:58;1.42;;;1.23;;
65279;SDS011;51878;55.748;48.742;2022-09-12T07:46:26;1.30;;;1.20;;
65279;SDS011;51878;55.748;48.742;2022-09-12T07:48:56;1.40;;;1.30;;
65279;SDS011;51878;55.748;48.742;2022-09-12T07:51:26;3.53;;;1.67;;
65279;SDS011;51878;55.748;48.742;2022-09-12T07:53:54;2.10;;;1.30;;
65279;SDS011;51878;55.748;48.742;2022-09-12T07:56:22;1.52;;;1.20;;
65279;SDS011;51878;55.748;48.742;2022-09-12T07:58:54;1.25;;;1.15;;
65279;SDS011;51878;55.748;48.742;2022-09-12T08:01:22;4.78;;;1.30;;
65279;SDS011;51878;55.748;48.742;2022-09-12T08:03:52;3.45;;;1.60;;
65279;SDS011;51878;55.748;48.742;2022-09-12T08:06:22;1.55;;;1.30;;
65279;SDS011;51878;55.748;48.742;2022-09-12T08:08:54;1.40;;;1.17;;
65279;SDS011;51878;55.748;48.742;2022-09-12T08:11:23;2.53;;;1.30;;
65279;SDS011;51878;55.748;48.742;2022-09-12T08:13:54;2.97;;;1.27;;
65279;SDS011;51878;55.748;48.742;2022-09-12T08:16:24;3.47;;;1.20;;
65279;SDS011;51878;55.748;48.742;2022-09-12T08:18:53;1.52;;;1.10;;
65279;SDS011;51878;55.748;48.742;2022-09-12T08:21:20;2.92;;;1.60;;
65279;SDS011;51878;55.748;48.742;2022-09-12T08:23:52;3.67;;;1.30;;
65279;SDS011;51878;55.748;48.742;2022-09-12T08:26:21;1.50;;;1.40;;
65279;SDS011;51878;55.748;48.742;2022-09-12T08:28:49;2.33;;;1.30;;
65279;SDS011;51878;55.748;48.742;2022-09-12T08:31:17;12.00;;;1.17;;
65279;SDS011;51878;55.748;48.742;2022-09-12T08:33:46;1.50;;;1.10;;
65279;SDS011;51878;55.748;48.742;2022-09-12T08:36:17;1.45;;;1.33;;
65279;SDS011;51878;55.748;48.742;2022-09-12T08:38:47;3.40;;;1.40;;
65279;SDS011;51878;55.748;48.742;2022-09-12T08:41:30;3.42;;;1.60;;
65279;SDS011;51878;55.748;48.742;2022-09-12T08:49:13;2.17;;;1.48;;
65279;SDS011;51878;55.748;48.742;2022-09-12T08:51:49;2.45;;;1.50;;
65279;SDS011;51878;55.748;48.742;2022-09-12T08:54:22;1.88;;;1.20;;
65279;SDS011;51878;55.748;48.742;2022-09-12T08:56:55;2.60;;;1.33;;
65279;SDS011;51878;55.748;48.742;2022-09-12T08:59:34;1.50;;;1.30;;
65279;SDS011;51878;55.748;48.742;2022-09-12T09:02:12;3.67;;;1.40;;
65279;SDS011;51878;55.748;48.742;2022-09-12T09:05:41;2.00;;;1.67;;
65279;SDS011;51878;55.748;48.742;2022-09-12T09:10:35;2.63;;;1.80;;
65279;SDS011;51878;55.748;48.742;2022-09-12T09:13:28;5.22;;;2.15;;
65279;SDS011;51878;55.748;48.742;2022-09-12T09:16:41;7.03;;;2.60;;
65279;SDS011;51878;55.748;48.742;2022-09-12T09:19:14;3.17;;;2.20;;
65279;SDS011;51878;55.748;48.742;2022-09-12T09:21:49;3.50;;;2.20;;
65279;SDS011;51878;55.748;48.742;2022-09-12T09:24:20;3.35;;;1.80;;
65279;SDS011;51878;55.748;48.742;2022-09-12T09:30:07;2.08;;;1.65;;
65279;SDS011;51878;55.748;48.742;2022-09-12T09:32:41;4.35;;;1.77;;
65279;SDS011;51878;55.748;48.742;2022-09-12T09:35:17;5.65;;;1.60;;
65279;SDS011;51878;55.748;48.742;2022-09-12T09:38:01;2.03;;;1.58;;
65279;SDS011;51878;55.748;48.742;2022-09-12T09:40:44;3.20;;;2.00;;
65279;SDS011;51878;55.748;48.742;2022-09-12T09:43:36;3.35;;;2.03;;
65279;SDS011;51878;55.748;48.742;2022-09-12T09:46:04;2.58;;;2.10;;
65279;SDS011;51878;55.748;48.742;2022-09-12T09:48:34;2.60;;;2.20;;
65279;SDS011;51878;55.748;48.742;2022-09-12T09:51:03;2.40;;;2.20;;
65279;SDS011;51878;55.748;48.742;2022-09-12T09:53:37;3.85;;;2.45;;
65279;SDS011;51878;55.748;48.742;2022-09-12T09:56:23;3.00;;;2.30;;
65279;SDS011;51878;55.748;48.742;2022-09-12T09:58:54;9.40;;;2.22;;
65279;SDS011;51878;55.748;48.742;2022-09-12T10:01:21;4.82;;;2.15;;
65279;SDS011;51878;55.748;48.742;2022-09-12T10:03:50;5.38;;;2.60;;
65279;SDS011;51878;55.748;48.742;2022-09-12T10:08:46;4.13;;;2.53;;
65279;SDS011;51878;55.748;48.742;2022-09-12T10:13:51;4.10;;;2.47;;
65279;SDS011;51878;55.748;48.742;2022-09-12T10:16:27;4.43;;;2.33;;
65279;SDS011;51878;55.748;48.742;2022-09-12T10:18:58;3.28;;;2.45;;
65279;SDS011;51878;55.748;48.742;2022-09-12T10:24:27;5.45;;;2.65;;
65279;SDS011;51878;55.748;48.742;2022-09-12T10:29:40;2.95;;;2.53;;
65279;SDS011;51878;55.748;48.742;2022-09-12T10:35:00;5.25;;;2.65;;
65279;SDS011;51878;55.748;48.742;2022-09-12T10:37:33;3.75;;;2.40;;
65279;SDS011;51878;55.748;48.742;2022-09-12T10:40:03;3.30;;;2.83;;
65279;SDS011;51878;55.748;48.742;2022-09-12T10:45:29;3.72;;;2.60;;
65279;SDS011;51878;55.748;48.742;2022-09-12T10:47:58;3.13;;;2.75;;
65279;SDS011;51878;55.748;48.742;2022-09-12T10:55:51;5.82;;;2.90;;
65279;SDS011;51878;55.748;48.742;2022-09-12T11:01:32;4.47;;;3.13;;
65279;SDS011;51878;55.748;48.742;2022-09-12T11:15:36;4.07;;;2.80;;
65279;SDS011;51878;55.748;48.742;2022-09-12T11:24:03;4.97;;;2.78;;
65279;SDS011;51878;55.748;48.742;2022-09-12T11:29:33;2.95;;;2.40;;
65279;SDS011;51878;55.748;48.742;2022-09-12T11:40:53;5.82;;;2.05;;
65279;SDS011;51878;55.748;48.742;2022-09-12T11:43:23;5.07;;;2.53;;
65279;SDS011;51878;55.748;48.742;2022-09-12T11:45:58;5.47;;;2.40;;
65279;SDS011;51878;55.748;48.742;2022-09-12T11:51:19;6.38;;;2.90;;
65279;SDS011;51878;55.748;48.742;2022-09-12T11:54:01;3.47;;;2.47;;
65279;SDS011;51878;55.748;48.742;2022-09-12T11:56:44;4.93;;;2.92;;
65279;SDS011;51878;55.748;48.742;2022-09-12T11:59:14;3.75;;;2.60;;
65279;SDS011;51878;55.748;48.742;2022-09-12T12:02:03;4.75;;;2.55;;
65279;SDS011;51878;55.748;48.742;2022-09-12T12:04:40;4.47;;;2.78;;
65279;SDS011;51878;55.748;48.742;2022-09-12T12:07:17;8.13;;;2.58;;
65279;SDS011;51878;55.748;48.742;2022-09-12T12:09:46;4.65;;;2.55;;
65279;SDS011;51878;55.748;48.742;2022-09-12T12:12:20;4.78;;;2.60;;
65279;SDS011;51878;55.748;48.742;2022-09-12T12:14:53;2.75;;;2.35;;
65279;SDS011;51878;55.748;48.742;2022-09-12T12:17:22;4.03;;;2.50;;
65279;SDS011;51878;55.748;48.742;2022-09-12T12:20:01;3.42;;;2.30;;
65279;SDS011;51878;55.748;48.742;2022-09-12T12:22:33;2.92;;;2.30;;
65279;SDS011;51878;55.748;48.742;2022-09-12T12:27:48;8.30;;;2.53;;
65279;SDS011;51878;55.748;48.742;2022-09-12T12:32:59;10.32;;;2.40;;
65279;SDS011;51878;55.748;48.742;2022-09-12T12:35:41;3.00;;;2.15;;
65279;SDS011;51878;55.748;48.742;2022-09-12T12:38:28;5.38;;;2.45;;
65279;SDS011;51878;55.748;48.742;2022-09-12T12:43:45;4.10;;;2.75;;
65279;SDS011;51878;55.748;48.742;2022-09-12T12:46:26;3.45;;;2.42;;
65279;SDS011;51878;55.748;48.742;2022-09-12T12:54:30;5.97;;;3.20;;
65279;SDS011;51878;55.748;48.742;2022-09-12T13:05:49;5.57;;;2.30;;
65279;SDS011;51878;55.748;48.742;2022-09-12T13:10:50;4.05;;;2.63;;
65279;SDS011;51878;55.748;48.742;2022-09-12T13:13:46;3.65;;;2.55;;
65279;SDS011;51878;55.748;48.742;2022-09-12T13:19:30;2.85;;;2.30;;
65279;SDS011;51878;55.748;48.742;2022-09-12T13:22:00;5.00;;;2.33;;
65279;SDS011;51878;55.748;48.742;2022-09-12T13:24:29;5.43;;;2.47;;
65279;SDS011;51878;55.748;48.742;2022-09-12T13:26:56;7.07;;;2.30;;
65279;SDS011;51878;55.748;48.742;2022-09-12T13:29:24;3.13;;;2.33;;
65279;SDS011;51878;55.748;48.742;2022-09-12T13:31:54;2.97;;;2.45;;
65279;SDS011;51878;55.748;48.742;2022-09-12T13:34:36;6.65;;;2.97;;
65279;SDS011;51878;55.748;48.742;2022-09-12T13:40:03;5.32;;;2.40;;
65279;SDS011;51878;55.748;48.742;2022-09-12T13:43:14;4.45;;;2.53;;
65279;SDS011;51878;55.748;48.742;2022-09-12T13:45:44;7.10;;;3.25;;
65279;SDS011;51878;55.748;48.742;2022-09-12T13:48:16;5.22;;;3.05;;
65279;SDS011;51878;55.748;48.742;2022-09-12T13:50:56;6.90;;;2.63;;
65279;SDS011;51878;55.748;48.742;2022-09-12T13:53:28;2.80;;;2.25;;
65279;SDS011;51878;55.748;48.742;2022-09-12T13:56:02;3.45;;;2.42;;
65279;SDS011;51878;55.748;48.742;2022-09-12T13:58:31;4.63;;;2.47;;
65279;SDS011;51878;55.748;48.742;2022-09-12T14:03:37;3.38;;;2.40;;
65279;SDS011;51878;55.748;48.742;2022-09-12T14:06:25;5.32;;;2.30;;
65279;SDS011;51878;55.748;48.742;2022-09-12T14:08:53;6.95;;;2.40;;
65279;SDS011;51878;55.748;48.742;2022-09-12T14:11:29;5.70;;;2.42;;
65279;SDS011;51878;55.748;48.742;2022-09-12T14:13:59;5.03;;;2.10;;
65279;SDS011;51878;55.748;48.742;2022-09-12T14:16:32;3.95;;;1.98;;
65279;SDS011;51878;55.748;48.742;2022-09-12T14:19:05;3.13;;;1.90;;
65279;SDS011;51878;55.748;48.742;2022-09-12T14:21:34;6.07;;;1.90;;
65279;SDS011;51878;55.748;48.742;2022-09-12T14:24:03;3.30;;;2.17;;
65279;SDS011;51878;55.748;48.742;2022-09-12T14:26:32;3.90;;;1.85;;
65279;SDS011;51878;55.748;48.742;2022-09-12T14:29:04;4.20;;;1.90;;
65279;SDS011;51878;55.748;48.742;2022-09-12T14:31:35;2.95;;;1.95;;
65279;SDS011;51878;55.748;48.742;2022-09-12T14:34:10;5.18;;;1.70;;
65279;SDS011;51878;55.748;48.742;2022-09-12T14:36:42;5.95;;;2.10;;
65279;SDS011;51878;55.748;48.742;2022-09-12T14:42:12;4.70;;;2.38;;
65279;SDS011;51878;55.748;48.742;2022-09-12T14:44:50;3.75;;;1.88;;
65279;SDS011;51878;55.748;48.742;2022-09-12T14:47:25;8.20;;;2.08;;
65279;SDS011;51878;55.748;48.742;2022-09-12T14:49:57;2.83;;;1.88;;
65279;SDS011;51878;55.748;48.742;2022-09-12T14:52:26;6.53;;;1.90;;
65279;SDS011;51878;55.748;48.742;2022-09-12T14:54:56;2.45;;;1.50;;
65279;SDS011;51878;55.748;48.742;2022-09-12T15:00:25;2.58;;;1.55;;
65279;SDS011;51878;55.748;48.742;2022-09-12T15:03:19;3.42;;;1.58;;
65279;SDS011;51878;55.748;48.742;2022-09-12T15:06:03;3.63;;;1.48;;
65279;SDS011;51878;55.748;48.742;2022-09-12T15:08:35;1.58;;;1.20;;
65279;SDS011;51878;55.748;48.742;2022-09-12T15:11:04;3.25;;;1.70;;
65279;SDS011;51878;55.748;48.742;2022-09-12T15:13:38;6.93;;;1.92;;
65279;SDS011;51878;55.748;48.742;2022-09-12T15:16:07;2.50;;;1.30;;
65279;SDS011;51878;55.748;48.742;2022-09-12T15:18:36;3.03;;;1.90;;
65279;SDS011;51878;55.748;48.742;2022-09-12T15:21:04;6.03;;;1.80;;
65279;SDS011;51878;55.748;48.742;2022-09-12T15:23:34;6.55;;;1.70;;
65279;SDS011;51878;55.748;48.742;2022-09-12T15:26:12;1.60;;;1.50;;
65279;SDS011;51878;55.748;48.742;2022-09-12T15:28:41;1.67;;;1.42;;
65279;SDS011;51878;55.748;48.742;2022-09-12T15:31:20;4.65;;;1.75;;
65279;SDS011;51878;55.748;48.742;2022-09-12T15:33:48;2.10;;;1.50;;
65279;SDS011;51878;55.748;48.742;2022-09-12T15:36:17;2.15;;;1.58;;
65279;SDS011;51878;55.748;48.742;2022-09-12T15:38:46;2.50;;;1.40;;
65279;SDS011;51878;55.748;48.742;2022-09-12T15:41:16;2.33;;;1.70;;
65279;SDS011;51878;55.748;48.742;2022-09-12T15:43:48;4.45;;;1.60;;
65279;SDS011;51878;55.748;48.742;2022-09-12T15:46:18;4.90;;;1.70;;
65279;SDS011;51878;55.748;48.742;2022-09-12T15:48:46;4.55;;;1.77;;
65279;SDS011;51878;55.748;48.742;2022-09-12T15:51:13;7.45;;;1.80;;
65279;SDS011;51878;55.748;48.742;2022-09-12T15:53:42;3.00;;;1.77;;
65279;SDS011;51878;55.748;48.742;2022-09-12T15:56:10;4.13;;;1.67;;
65279;SDS011;51878;55.748;48.742;2022-09-12T15:58:38;3.60;;;1.50;;
65279;SDS011;51878;55.748;48.742;2022-09-12T16:01:20;2.92;;;1.60;;
65279;SDS011;51878;55.748;48.742;2022-09-12T16:03:48;1.80;;;1.70;;
65279;SDS011;51878;55.748;48.742;2022-09-12T16:06:15;2.85;;;1.90;;
65279;SDS011;51878;55.748;48.742;2022-09-12T16:08:42;5.00;;;1.83;;
65279;SDS011;51878;55.748;48.742;2022-09-12T16:11:11;2.33;;;1.70;;
65279;SDS011;51878;55.748;48.742;2022-09-12T16:13:44;2.67;;;1.50;;
65279;SDS011;51878;55.748;48.742;2022-09-12T16:16:14;1.85;;;1.50;;
65279;SDS011;51878;55.748;48.742;2022-09-12T16:18:41;2.03;;;1.75;;
65279;SDS011;51878;55.748;48.742;2022-09-12T16:21:08;3.72;;;2.22;;
65279;SDS011;51878;55.748;48.742;2022-09-12T16:23:43;4.13;;;1.75;;
65279;SDS011;51878;55.748;48.742;2022-09-12T16:26:14;1.73;;;1.40;;
65279;SDS011;51878;55.748;48.742;2022-09-12T16:28:42;1.67;;;1.55;;
65279;SDS011;51878;55.748;48.742;2022-09-12T16:31:10;1.70;;;1.40;;
65279;SDS011;51878;55.748;48.742;2022-09-12T16:33:39;2.35;;;1.50;;
65279;SDS011;51878;55.748;48.742;2022-09-12T16:36:07;1.60;;;1.50;;
65279;SDS011;51878;55.748;48.742;2022-09-12T16:38:42;3.22;;;1.83;;
65279;SDS011;51878;55.748;48.742;2022-09-12T16:41:11;2.03;;;1.50;;
65279;SDS011;51878;55.748;48.742;2022-09-12T16:43:39;1.35;;;1.25;;
65279;SDS011;51878;55.748;48.742;2022-09-12T16:48:37;2.13;;;1.60;;
65279;SDS011;51878;55.748;48.742;2022-09-12T16:51:18;2.05;;;1.27;;
65279;SDS011;51878;55.748;48.742;2022-09-12T16:53:47;1.73;;;1.55;;
65279;SDS011;51878;55.748;48.742;2022-09-12T16:56:15;1.50;;;1.40;;
65279;SDS011;51878;55.748;48.742;2022-09-12T16:58:42;11.07;;;1.55;;
65279;SDS011;51878;55.748;48.742;2022-09-12T17:01:19;3.47;;;1.50;;
65279;SDS011;51878;55.748;48.742;2022-09-12T17:03:51;6.07;;;1.38;;
65279;SDS011;51878;55.748;48.742;2022-09-12T17:06:22;3.03;;;2.03;;
65279;SDS011;51878;55.748;48.742;2022-09-12T17:08:51;1.95;;;1.50;;
65279;SDS011;51878;55.748;48.742;2022-09-12T17:11:21;2.85;;;1.33;;
65279;SDS011;51878;55.748;48.742;2022-09-12T17:14:09;3.22;;;1.30;;
65279;SDS011;51878;55.748;48.742;2022-09-12T17:16:37;2.30;;;1.55;;
65279;SDS011;51878;55.748;48.742;2022-09-12T17:19:09;1.63;;;1.40;;
65279;SDS011;51878;55.748;48.742;2022-09-12T17:21:40;2.97;;;1.42;;
65279;SDS011;51878;55.748;48.742;2022-09-12T17:24:07;2.28;;;1.30;;
65279;SDS011;51878;55.748;48.742;2022-09-12T17:26:34;2.58;;;1.63;;
65279;SDS011;51878;55.748;48.742;2022-09-12T17:29:02;4.18;;;1.50;;
65279;SDS011;51878;55.748;48.742;2022-09-12T17:31:29;1.55;;;1.30;;